Terminal Aerodrome Forecast
Issued by NWS

Home | Current Version | Previous Version | Text Only | Print | Product List | Glossary On
Versions: 1 2 3 4 5 6 7 8 9 10 11 12 13
000
FTUS42 KTBW 022300
TAFPGD
TAF
KPGD 022335Z 0300/0324 13005KT P6SM VCSH SCT040 BKN050 BKN120
     FM030200 11005KT P6SM SCT040 BKN250
     FM031600 15005KT P6SM FEW025 SCT250
     FM031900 26006KT P6SM VCTS SCT050CB SCT120 BKN250=

USA.gov is the U.S. government's official web portal to all federal, state and local government web resources and services.